createdAt,value
2019-06-08T00:00:27.895Z,60.18
2019-06-08T00:02:59.925Z,60.37
2019-06-08T00:05:32.025Z,60.69
2019-06-08T00:08:04.116Z,60.78
2019-06-08T00:10:35.962Z,60.74
2019-06-08T00:13:08.010Z,60.83
2019-06-08T00:15:40.824Z,60.85
2019-06-08T00:18:15.250Z,60.99
2019-06-08T00:20:47.312Z,60.94
2019-06-08T00:23:20.259Z,61.42
2019-06-08T00:25:53.251Z,61.07
2019-06-08T00:28:25.126Z,61.22
2019-06-08T00:30:57.083Z,61.39
2019-06-08T00:33:28.843Z,61.69
2019-06-08T00:36:00.786Z,61.21
2019-06-08T00:38:32.687Z,61.23
2019-06-08T00:41:04.705Z,61.64
2019-06-08T00:43:36.493Z,61.97
2019-06-08T00:46:08.350Z,62.12
2019-06-08T00:48:40.215Z,61.95
2019-06-08T00:51:12.076Z,61.61
2019-06-08T00:53:43.854Z,61.87
2019-06-08T00:56:15.794Z,62.03
2019-06-08T00:58:47.762Z,61.87
2019-06-08T01:01:22.077Z,62.29
2019-06-08T01:03:53.445Z,62.20
2019-06-08T01:06:25.664Z,62.52
2019-06-08T01:08:57.937Z,62.38
2019-06-08T01:11:29.927Z,62.67
2019-06-08T01:14:01.881Z,62.52
2019-06-08T01:16:33.972Z,62.42
2019-06-08T01:19:06.059Z,62.44
2019-06-08T01:21:38.064Z,62.50
2019-06-08T01:24:10.087Z,62.41
2019-06-08T01:26:42.195Z,62.76
2019-06-08T01:29:14.204Z,63.17
2019-06-08T01:31:46.149Z,63.44
2019-06-08T01:34:18.100Z,63.39
2019-06-08T01:36:50.167Z,63.32
2019-06-08T01:39:23.038Z,62.84
2019-06-08T01:41:55.100Z,62.98
2019-06-08T01:44:28.086Z,63.14
2019-06-08T01:47:00.205Z,63.44
2019-06-08T01:49:32.564Z,63.71
2019-06-08T01:52:04.433Z,63.79
2019-06-08T01:54:36.954Z,63.70
2019-06-08T01:57:10.063Z,63.34
2019-06-08T01:59:42.321Z,63.28
2019-06-08T02:02:14.571Z,62.81
2019-06-08T02:04:46.596Z,62.89
2019-06-08T02:07:18.625Z,63.07
2019-06-08T02:09:50.688Z,63.22
2019-06-08T02:12:22.752Z,62.96
2019-06-08T02:14:54.839Z,63.32
2019-06-08T02:17:27.347Z,63.24
2019-06-08T02:19:59.441Z,63.25
2019-06-08T02:22:31.445Z,63.50
2019-06-08T02:25:03.504Z,63.77
2019-06-08T02:27:35.878Z,63.87
2019-06-08T02:30:17.267Z,63.87
2019-06-08T02:32:49.495Z,63.70
2019-06-08T02:35:21.826Z,63.92
2019-06-08T02:37:53.839Z,64.05
2019-06-08T02:40:27.401Z,64.15
2019-06-08T02:42:59.530Z,63.81
2019-06-08T02:45:32.583Z,63.98
2019-06-08T02:48:05.474Z,64.44
2019-06-08T02:50:51.883Z,64.80
2019-06-08T02:53:24.507Z,65.10
2019-06-08T02:55:56.550Z,65.13
2019-06-08T02:58:29.242Z,65.29
2019-06-08T03:01:01.783Z,65.18
2019-06-08T03:03:35.734Z,65.17
2019-06-08T03:06:08.682Z,65.12
2019-06-08T03:08:42.100Z,65.02
2019-06-08T03:11:14.568Z,64.84
2019-06-08T03:13:47.109Z,65.27
2019-06-08T03:16:19.143Z,65.39
2019-06-08T03:18:51.287Z,65.30
2019-06-08T03:21:23.522Z,65.10
2019-06-08T03:23:55.411Z,64.48
2019-06-08T03:26:27.371Z,64.10
2019-06-08T03:28:59.513Z,62.75
2019-06-08T03:31:34.599Z,61.58
2019-06-08T03:34:06.676Z,61.73
2019-06-08T03:36:46.748Z,62.12
2019-06-08T03:39:12.405Z,61.62
2019-06-08T03:41:45.158Z,61.28
2019-06-08T03:44:17.890Z,60.88
2019-06-08T03:46:49.815Z,59.90
2019-06-08T03:49:40.292Z,59.65
2019-06-08T03:51:55.910Z,58.27
2019-06-08T03:54:27.774Z,58.17
2019-06-08T03:56:59.915Z,58.23
2019-06-08T03:59:32.110Z,58.09
2019-06-08T04:02:04.282Z,57.80
2019-06-08T04:04:37.798Z,57.74
2019-06-08T04:07:09.604Z,58.22
2019-06-08T04:09:43.480Z,58.75
2019-06-08T04:12:17.350Z,59.35
2019-06-08T04:14:50.467Z,58.73
2019-06-08T04:17:22.457Z,57.87
2019-06-08T04:20:09.325Z,56.90
2019-06-08T04:22:28.173Z,56.88
2019-06-08T04:25:00.350Z,56.52
2019-06-08T04:27:32.299Z,56.57
2019-06-08T04:30:07.435Z,56.24
2019-06-08T04:32:40.713Z,55.84
2019-06-08T04:35:12.866Z,56.39
2019-06-08T04:37:46.800Z,56.41
2019-06-08T04:40:18.562Z,56.46
2019-06-08T04:42:51.095Z,55.95
2019-06-08T04:45:23.308Z,55.52
2019-06-08T04:47:55.476Z,55.26
2019-06-08T04:50:27.536Z,55.17
2019-06-08T04:52:59.931Z,55.30
2019-06-08T04:55:32.082Z,55.39
2019-06-08T04:58:04.246Z,55.31
2019-06-08T05:00:36.516Z,55.56
2019-06-08T05:03:08.793Z,55.80
2019-06-08T05:05:43.339Z,55.44
2019-06-08T05:08:15.473Z,55.50
2019-06-08T05:10:47.633Z,54.78
2019-06-08T05:13:21.352Z,54.27
2019-06-08T05:15:53.516Z,53.77
2019-06-08T05:18:26.154Z,54.01
2019-06-08T05:20:58.366Z,53.52
2019-06-08T05:23:30.433Z,54.09
2019-06-08T05:26:02.563Z,54.17
2019-06-08T05:28:36.094Z,53.65
2019-06-08T05:31:08.214Z,53.69
2019-06-08T05:33:41.324Z,54.10
2019-06-08T05:36:13.315Z,54.34
2019-06-08T05:38:45.745Z,54.68
2019-06-08T05:41:17.814Z,54.49
2019-06-08T05:43:50.098Z,54.19
2019-06-08T05:46:22.257Z,54.02
2019-06-08T05:48:54.368Z,54.12
2019-06-08T05:51:26.407Z,53.76
2019-06-08T05:53:58.733Z,53.08
2019-06-08T05:56:30.548Z,52.87
2019-06-08T05:59:02.645Z,52.05
2019-06-08T06:01:34.702Z,51.65
2019-06-08T06:04:06.847Z,51.90
2019-06-08T06:06:40.356Z,51.99
2019-06-08T06:09:12.324Z,52.10
2019-06-08T06:11:44.806Z,51.57
2019-06-08T06:14:16.958Z,51.10
2019-06-08T06:16:49.144Z,50.87
2019-06-08T06:19:20.946Z,51.04
2019-06-08T06:21:52.803Z,51.09
2019-06-08T06:24:26.190Z,49.70
2019-06-08T06:26:58.236Z,50.24
2019-06-08T06:29:30.098Z,49.63
2019-06-08T06:32:03.062Z,49.85
2019-06-08T06:34:34.847Z,49.67
2019-06-08T06:37:06.720Z,49.00
2019-06-08T06:39:38.630Z,48.70
2019-06-08T06:42:10.538Z,48.34
2019-06-08T06:44:42.293Z,48.15
2019-06-08T06:47:14.105Z,47.25
2019-06-08T06:49:46.529Z,47.02
2019-06-08T06:52:18.533Z,47.35
2019-06-08T06:54:51.243Z,46.59
2019-06-08T06:57:23.079Z,46.27
2019-06-08T06:59:56.341Z,45.76
2019-06-08T07:02:28.643Z,46.04
2019-06-08T07:05:00.708Z,46.37
2019-06-08T07:07:32.672Z,46.32
2019-06-08T07:10:07.979Z,45.73
2019-06-08T07:12:40.084Z,45.84
2019-06-08T07:15:14.090Z,45.20
2019-06-08T07:17:46.146Z,44.40
2019-06-08T07:20:17.920Z,44.38
2019-06-08T07:22:50.277Z,43.92
2019-06-08T07:25:22.611Z,43.24
2019-06-08T07:27:55.097Z,42.64
2019-06-08T07:30:27.287Z,42.87
2019-06-08T07:32:59.477Z,42.71
2019-06-08T07:35:32.354Z,43.40
2019-06-08T07:38:04.137Z,43.13
2019-06-08T07:40:36.473Z,42.98
2019-06-08T07:43:08.652Z,42.65
2019-06-08T07:45:40.611Z,42.44
2019-06-08T07:48:12.679Z,42.20
2019-06-08T07:50:44.699Z,42.25
2019-06-08T07:53:16.571Z,41.52
2019-06-08T07:55:49.969Z,41.07
2019-06-08T07:58:22.035Z,41.04
2019-06-08T08:00:54.930Z,40.43
2019-06-08T08:03:27.567Z,40.04
2019-06-08T08:05:59.630Z,40.00
2019-06-08T08:08:33.112Z,40.62
2019-06-08T08:11:06.619Z,40.48
2019-06-08T08:13:39.872Z,39.43
2019-06-08T08:16:11.816Z,39.76
2019-06-08T08:18:43.704Z,38.90
2019-06-08T08:21:23.230Z,39.79
2019-06-08T08:23:50.225Z,39.18
2019-06-08T08:26:23.072Z,39.33
2019-06-08T08:28:57.101Z,37.85
2019-06-08T08:31:28.636Z,36.96
2019-06-08T08:34:05.831Z,36.95
2019-06-08T08:36:34.562Z,38.14
2019-06-08T08:39:08.529Z,38.25
2019-06-08T08:41:40.600Z,36.54
2019-06-08T08:44:12.440Z,37.02
2019-06-08T08:46:44.235Z,36.38
2019-06-08T08:49:18.246Z,36.28
2019-06-08T08:51:50.643Z,36.40
2019-06-08T08:54:22.946Z,36.58
2019-06-08T08:57:00.714Z,36.69
2019-06-08T08:59:28.717Z,36.15
2019-06-08T09:02:02.602Z,37.22
2019-06-08T09:04:34.090Z,37.02
2019-06-08T09:07:09.627Z,38.82
2019-06-08T09:09:39.473Z,37.09
2019-06-08T09:12:12.356Z,36.82
2019-06-08T09:14:44.318Z,37.25
2019-06-08T09:17:18.109Z,36.02
2019-06-08T09:19:52.378Z,35.04
2019-06-08T09:22:24.793Z,35.59
2019-06-08T09:25:02.479Z,36.54
2019-06-08T09:27:33.218Z,36.94
2019-06-08T09:30:08.326Z,35.59
2019-06-08T09:32:40.013Z,36.89
2019-06-08T09:35:12.590Z,36.08
2019-06-08T09:37:44.651Z,36.88
2019-06-08T09:40:16.514Z,37.26
2019-06-08T09:42:50.829Z,36.07
2019-06-08T09:45:22.180Z,36.64
2019-06-08T09:47:55.320Z,36.79
2019-06-08T09:50:27.794Z,36.06
2019-06-08T09:53:14.808Z,35.25
2019-06-08T09:55:33.205Z,35.43
2019-06-08T09:58:09.424Z,34.23
2019-06-08T10:00:39.590Z,33.29
2019-06-08T10:03:12.158Z,34.70
2019-06-08T10:05:44.119Z,33.00
2019-06-08T10:08:20.274Z,33.50
2019-06-08T10:10:49.695Z,33.31
2019-06-08T10:13:21.498Z,34.36
2019-06-08T10:15:54.925Z,33.61
2019-06-08T10:18:28.597Z,34.73
2019-06-08T10:21:02.886Z,34.63
2019-06-08T10:23:34.837Z,34.49
2019-06-08T10:26:07.009Z,34.96
2019-06-08T10:28:39.210Z,33.11
2019-06-08T10:31:12.235Z,33.70
2019-06-08T10:33:44.403Z,33.30
2019-06-08T10:36:18.243Z,33.33
2019-06-08T10:38:50.170Z,33.00
2019-06-08T10:41:24.076Z,33.23
2019-06-08T10:43:57.175Z,33.65
2019-06-08T10:46:29.231Z,33.19
2019-06-08T10:49:01.987Z,32.93
2019-06-08T10:51:34.384Z,32.87
2019-06-08T10:54:09.337Z,33.96
2019-06-08T10:56:44.341Z,34.49
2019-06-08T10:59:18.345Z,34.16
2019-06-08T11:01:49.694Z,33.20
2019-06-08T11:04:21.761Z,33.72
2019-06-08T11:06:54.025Z,33.91
2019-06-08T11:09:28.441Z,33.39
2019-06-08T11:12:01.506Z,32.92
2019-06-08T11:14:34.160Z,33.30
2019-06-08T11:17:09.578Z,32.82
2019-06-08T11:19:40.304Z,31.91
2019-06-08T11:22:14.006Z,32.72
2019-06-08T11:24:48.412Z,32.12
2019-06-08T11:27:20.229Z,31.95
2019-06-08T11:29:52.220Z,32.37
2019-06-08T11:32:24.282Z,30.94
2019-06-08T11:34:56.368Z,31.49
2019-06-08T11:37:28.241Z,31.56
2019-06-08T11:40:00.193Z,30.10
2019-06-08T11:42:31.949Z,30.70
2019-06-08T11:45:09.433Z,30.69
2019-06-08T11:47:40.789Z,30.62
2019-06-08T11:50:13.469Z,30.10
2019-06-08T11:52:45.738Z,30.97
2019-06-08T11:55:18.106Z,30.79
2019-06-08T11:57:50.482Z,30.22
2019-06-08T12:00:48.901Z,30.04
2019-06-08T12:03:21.063Z,28.99
2019-06-08T12:05:52.878Z,29.12
2019-06-08T12:08:24.599Z,29.01
2019-06-08T12:11:01.195Z,28.79
2019-06-08T12:13:29.834Z,28.90
2019-06-08T12:16:02.978Z,29.04
2019-06-08T12:18:34.966Z,28.77
2019-06-08T12:21:08.659Z,29.75
2019-06-08T12:23:40.348Z,28.46
2019-06-08T12:26:12.323Z,28.87
2019-06-08T12:28:44.119Z,27.49
2019-06-08T12:31:21.422Z,27.71
2019-06-08T12:33:49.508Z,27.97
2019-06-08T12:36:21.276Z,27.48
2019-06-08T12:38:53.234Z,27.41
2019-06-08T12:41:25.548Z,27.46
2019-06-08T12:43:58.042Z,28.26
2019-06-08T12:46:30.231Z,27.78
2019-06-08T12:49:02.097Z,28.13
2019-06-08T12:51:34.259Z,28.45
2019-06-08T12:54:09.506Z,28.45
2019-06-08T12:56:40.033Z,27.97
2019-06-08T12:59:16.169Z,26.67
2019-06-08T13:01:48.246Z,25.87
2019-06-08T13:04:23.141Z,25.52
2019-06-08T13:06:53.414Z,26.34
2019-06-08T13:09:29.729Z,26.96
2019-06-08T13:11:59.805Z,26.41
2019-06-08T13:14:31.962Z,26.96
2019-06-08T13:17:04.336Z,27.54
2019-06-08T13:19:38.510Z,26.90
2019-06-08T13:22:10.786Z,26.46
2019-06-08T13:24:42.677Z,27.34
2019-06-08T13:27:15.494Z,27.39
2019-06-08T13:29:49.881Z,27.59
2019-06-08T13:32:22.044Z,26.77
2019-06-08T13:34:54.008Z,27.53
2019-06-08T13:37:27.588Z,27.05
2019-06-08T13:39:59.807Z,28.13
2019-06-08T13:42:31.756Z,28.25
2019-06-08T13:45:07.548Z,27.52
2019-06-08T13:47:41.411Z,28.00
2019-06-08T13:50:14.905Z,28.25
2019-06-08T13:52:48.418Z,28.34
2019-06-08T13:55:35.987Z,27.33
2019-06-08T13:57:54.575Z,27.58
2019-06-08T14:00:38.602Z,27.93
2019-06-08T14:03:10.380Z,27.73
2019-06-08T14:05:42.319Z,28.01
2019-06-08T14:08:14.722Z,27.53
2019-06-08T14:10:48.256Z,28.44
2019-06-08T14:13:26.803Z,28.37
2019-06-08T14:15:54.291Z,28.81
2019-06-08T14:18:32.169Z,27.50
2019-06-08T14:21:00.267Z,27.17
2019-06-08T14:23:32.634Z,27.12
2019-06-08T14:26:04.651Z,28.39
2019-06-08T14:28:38.053Z,28.79
2019-06-08T14:31:11.109Z,28.86
2019-06-08T14:33:43.018Z,29.11
2019-06-08T14:36:15.111Z,30.08
2019-06-08T14:38:49.472Z,29.60
2019-06-08T14:41:20.994Z,30.38
2019-06-08T14:43:52.951Z,30.07
2019-06-08T14:46:26.024Z,29.91
2019-06-08T14:48:59.409Z,30.23
2019-06-08T14:51:49.364Z,31.24
2019-06-08T14:54:25.172Z,31.87
2019-06-08T14:56:54.669Z,32.20
2019-06-08T14:59:29.891Z,32.51
2019-06-08T15:01:59.866Z,33.52
2019-06-08T15:04:36.012Z,33.51
2019-06-08T15:07:05.189Z,33.82
2019-06-08T15:09:37.534Z,33.84
2019-06-08T15:12:09.565Z,34.28
2019-06-08T15:14:42.522Z,34.41
2019-06-08T15:17:14.349Z,34.20
2019-06-08T15:19:47.554Z,34.85
2019-06-08T15:22:20.838Z,34.94
2019-06-08T15:24:53.123Z,34.88
2019-06-08T15:27:26.495Z,35.64
2019-06-08T15:29:58.991Z,35.73
2019-06-08T15:32:35.016Z,35.89
2019-06-08T15:35:08.122Z,36.31
2019-06-08T15:37:40.924Z,36.53
2019-06-08T15:40:13.078Z,36.42
2019-06-08T15:42:45.039Z,36.41
2019-06-08T15:45:18.310Z,36.48
2019-06-08T15:47:50.397Z,36.71
2019-06-08T15:50:22.463Z,36.63
2019-06-08T15:52:54.794Z,36.49
2019-06-08T15:55:29.877Z,36.50
2019-06-08T15:58:00.398Z,37.19
2019-06-08T16:00:33.252Z,37.35
2019-06-08T16:03:06.063Z,38.08
2019-06-08T16:05:37.967Z,38.45
2019-06-08T16:08:09.989Z,38.92
2019-06-08T16:10:42.060Z,38.99
2019-06-08T16:13:13.821Z,39.16
2019-06-08T16:15:45.654Z,39.39
2019-06-08T16:18:17.946Z,39.63
2019-06-08T16:20:50.012Z,39.98
2019-06-08T16:23:22.078Z,40.67
2019-06-08T16:25:54.139Z,40.44
2019-06-08T16:28:26.106Z,41.01
2019-06-08T16:30:58.580Z,41.40
2019-06-08T16:33:33.120Z,41.25
2019-06-08T16:36:05.402Z,41.75
2019-06-08T16:38:38.343Z,42.08
2019-06-08T16:41:10.740Z,42.30
2019-06-08T16:43:43.101Z,42.67
2019-06-08T16:46:15.169Z,42.70
2019-06-08T16:48:47.028Z,42.94
2019-06-08T16:51:19.263Z,43.26
2019-06-08T16:53:51.672Z,43.34
2019-06-08T16:56:23.559Z,43.50
2019-06-08T16:58:55.446Z,43.60
2019-06-08T17:01:28.361Z,43.63
2019-06-08T17:04:00.267Z,44.09
2019-06-08T17:06:33.544Z,44.40
2019-06-08T17:09:07.214Z,44.59
2019-06-08T17:11:39.223Z,44.99
2019-06-08T17:14:11.066Z,44.76
2019-06-08T17:16:42.925Z,44.56
2019-06-08T17:19:14.842Z,43.92
2019-06-08T17:21:46.740Z,43.75
2019-06-08T17:24:18.668Z,43.86
2019-06-08T17:26:50.530Z,43.54
2019-06-08T17:29:22.377Z,42.50
2019-06-08T17:31:54.255Z,41.67
2019-06-08T17:34:26.128Z,40.55
2019-06-08T17:36:58.116Z,39.96
2019-06-08T17:39:31.741Z,40.07
2019-06-08T17:42:03.976Z,39.99
2019-06-08T17:44:36.486Z,40.29
2019-06-08T17:47:08.426Z,40.55
2019-06-08T17:49:40.734Z,40.52
2019-06-08T17:52:12.588Z,40.80
2019-06-08T17:54:44.488Z,41.13
2019-06-08T17:57:16.376Z,40.95
2019-06-08T17:59:48.430Z,41.18
2019-06-08T18:02:27.323Z,41.48
2019-06-08T18:04:54.402Z,41.70
2019-06-08T18:07:27.759Z,42.31
2019-06-08T18:09:59.678Z,42.51
2019-06-08T18:12:33.950Z,42.38
2019-06-08T18:15:09.130Z,42.47
2019-06-08T18:17:42.666Z,42.96
2019-06-08T18:20:17.836Z,43.49
2019-06-08T18:22:50.154Z,43.47
2019-06-08T18:25:22.354Z,43.66
2019-06-08T18:28:08.944Z,43.98
2019-06-08T18:30:28.546Z,44.66
2019-06-08T18:33:01.256Z,44.76
2019-06-08T18:35:33.212Z,44.28
2019-06-08T18:38:07.135Z,44.57
2019-06-08T18:40:40.479Z,44.81
2019-06-08T18:43:12.686Z,45.30
2019-06-08T18:45:46.317Z,45.32
2019-06-08T18:48:19.067Z,45.62
2019-06-08T18:50:50.931Z,46.14
2019-06-08T18:53:22.789Z,46.34
2019-06-08T18:55:54.852Z,46.04
2019-06-08T18:58:27.976Z,46.83
2019-06-08T19:01:00.108Z,47.24
2019-06-08T19:03:32.175Z,46.98
2019-06-08T19:06:04.135Z,47.14
2019-06-08T19:08:40.254Z,46.77
2019-06-08T19:11:10.724Z,47.48
2019-06-08T19:13:42.766Z,47.72
2019-06-08T19:16:14.757Z,47.96
2019-06-08T19:18:52.118Z,47.54
2019-06-08T19:21:20.421Z,47.96
2019-06-08T19:23:52.484Z,47.41
2019-06-08T19:26:24.558Z,47.46
2019-06-08T19:28:57.925Z,47.46
2019-06-08T19:31:30.045Z,47.85
2019-06-08T19:34:02.147Z,47.34
2019-06-08T19:36:34.041Z,47.53
2019-06-08T19:39:07.945Z,47.17
2019-06-08T19:41:41.018Z,47.23
2019-06-08T19:44:13.386Z,47.51
2019-06-08T19:46:49.536Z,47.68
2019-06-08T19:49:18.945Z,46.97
2019-06-08T19:51:53.915Z,46.94
2019-06-08T19:54:24.337Z,46.90
2019-06-08T19:56:57.456Z,47.71
2019-06-08T19:59:30.541Z,48.12
2019-06-08T20:02:02.706Z,48.12
2019-06-08T20:04:34.575Z,48.87
2019-06-08T20:07:08.696Z,49.26
2019-06-08T20:09:41.203Z,49.58
2019-06-08T20:12:13.088Z,50.10
2019-06-08T20:14:45.441Z,50.27
2019-06-08T20:17:19.439Z,50.54
2019-06-08T20:19:51.536Z,50.92
2019-06-08T20:22:23.666Z,51.70
2019-06-08T20:24:56.384Z,50.89
2019-06-08T20:27:28.116Z,50.84
2019-06-08T20:29:59.888Z,51.41
2019-06-08T20:32:32.329Z,50.81
2019-06-08T20:35:08.024Z,50.78
2019-06-08T20:37:41.484Z,50.51
2019-06-08T20:40:14.374Z,50.67
2019-06-08T20:42:51.571Z,50.49
2019-06-08T20:45:22.517Z,50.39
2019-06-08T20:47:54.818Z,50.25
2019-06-08T20:50:27.175Z,50.10
2019-06-08T20:52:59.256Z,50.29
2019-06-08T20:55:31.082Z,50.72
2019-06-08T20:58:02.838Z,51.16
2019-06-08T21:00:34.671Z,50.70
2019-06-08T21:03:08.248Z,50.68
2019-06-08T21:05:40.171Z,50.96
2019-06-08T21:08:12.010Z,51.32
2019-06-08T21:10:44.289Z,51.04
2019-06-08T21:13:17.936Z,51.07
2019-06-08T21:15:53.629Z,50.89
2019-06-08T21:18:23.889Z,51.14
2019-06-08T21:20:57.866Z,51.02
2019-06-08T21:23:31.999Z,51.02
2019-06-08T21:26:02.851Z,50.76
2019-06-08T21:28:34.603Z,51.25
2019-06-08T21:31:08.364Z,51.37
2019-06-08T21:33:39.962Z,51.45
2019-06-08T21:36:11.718Z,51.43
2019-06-08T21:38:43.788Z,51.70
2019-06-08T21:41:17.191Z,51.43
2019-06-08T21:43:53.071Z,51.67
2019-06-08T21:46:22.720Z,52.25
2019-06-08T21:48:54.640Z,51.64
2019-06-08T21:51:26.544Z,51.66
2019-06-08T21:53:59.199Z,51.44
2019-06-08T21:56:31.928Z,51.73
2019-06-08T21:59:03.791Z,52.29
2019-06-08T22:01:37.587Z,52.33
2019-06-08T22:04:09.519Z,53.14
2019-06-08T22:06:41.321Z,54.46
2019-06-08T22:09:13.168Z,56.15
2019-06-08T22:11:47.116Z,57.98
2019-06-08T22:14:18.618Z,58.95
2019-06-08T22:16:52.098Z,60.52
2019-06-08T22:19:24.284Z,62.77
2019-06-08T22:21:59.791Z,63.17
2019-06-08T22:24:29.741Z,63.23
2019-06-08T22:27:02.026Z,64.29
2019-06-08T22:29:34.914Z,64.89
2019-06-08T22:32:07.572Z,64.96
2019-06-08T22:34:39.748Z,66.11
2019-06-08T22:37:11.790Z,66.62
2019-06-08T22:39:43.643Z,66.93
2019-06-08T22:42:17.604Z,66.83
2019-06-08T22:44:49.134Z,66.01
2019-06-08T22:47:20.981Z,64.54
2019-06-08T22:49:54.759Z,64.17
2019-06-08T22:52:27.795Z,64.13
2019-06-08T22:55:04.042Z,64.26
2019-06-08T22:57:33.440Z,64.06
2019-06-08T23:00:14.571Z,64.65
2019-06-08T23:02:40.517Z,64.02
2019-06-08T23:05:12.485Z,63.13
2019-06-08T23:07:44.227Z,62.41
2019-06-08T23:10:17.477Z,63.97
2019-06-08T23:12:49.422Z,65.75
2019-06-08T23:15:21.159Z,65.23
2019-06-08T23:17:52.937Z,65.30
2019-06-08T23:20:24.900Z,65.89
2019-06-08T23:22:58.608Z,66.18
2019-06-08T23:25:30.479Z,66.41
2019-06-08T23:28:03.357Z,66.60
2019-06-08T23:30:38.075Z,66.43
2019-06-08T23:33:11.235Z,66.69
2019-06-08T23:36:08.214Z,66.69
2019-06-08T23:38:17.381Z,65.77
2019-06-08T23:40:49.632Z,66.50
2019-06-08T23:43:22.622Z,67.21
2019-06-08T23:45:54.581Z,67.24
2019-06-08T23:48:27.887Z,67.04
2019-06-08T23:51:00.549Z,66.82
2019-06-08T23:53:32.521Z,66.64
2019-06-08T23:56:06.079Z,66.93
2019-06-08T23:58:38.080Z,67.00
